createdAt,value
2022-07-29T00:01:44.363Z,87.30
2022-07-29T00:04:12.039Z,87.30
2022-07-29T00:06:40.516Z,87.40
2022-07-29T00:09:08.131Z,87.40
2022-07-29T00:11:35.714Z,87.90
2022-07-29T00:14:04.329Z,88.20
2022-07-29T00:16:31.924Z,88.70
2022-07-29T00:19:02.337Z,89.00
2022-07-29T00:21:31.098Z,88.90
2022-07-29T00:23:58.692Z,88.80
2022-07-29T00:26:27.217Z,88.60
2022-07-29T00:29:17.154Z,88.60
2022-07-29T00:31:42.599Z,88.50
2022-07-29T00:34:32.036Z,88.40
2022-07-29T00:37:01.601Z,88.50
2022-07-29T00:39:30.441Z,88.30
2022-07-29T00:41:59.050Z,88.50
2022-07-29T00:44:26.634Z,89.00
2022-07-29T00:46:55.290Z,89.30
2022-07-29T00:49:23.876Z,89.10
2022-07-29T00:51:51.417Z,89.10
2022-07-29T00:54:19.349Z,89.00
2022-07-29T00:56:47.611Z,89.00
2022-07-29T00:59:16.203Z,89.30
2022-07-29T01:01:44.857Z,89.60
2022-07-29T01:04:12.487Z,89.70
2022-07-29T01:06:41.981Z,89.70
2022-07-29T01:09:12.605Z,90.00
2022-07-29T01:11:42.198Z,90.20
2022-07-29T01:14:10.812Z,90.20
2022-07-29T01:16:47.463Z,90.30
2022-07-29T01:19:48.146Z,90.50
2022-07-29T01:22:51.902Z,90.60
2022-07-29T01:25:59.635Z,90.80
2022-07-29T01:28:52.351Z,90.90
2022-07-29T01:31:36.569Z,90.90
2022-07-29T01:34:10.636Z,90.90
2022-07-29T01:36:44.246Z,90.80
2022-07-29T01:39:19.877Z,90.90
2022-07-29T01:42:03.526Z,91.00
2022-07-29T01:44:39.164Z,91.10
2022-07-29T01:47:13.764Z,91.10
2022-07-29T01:49:49.383Z,91.00
2022-07-29T01:52:23.670Z,90.90
2022-07-29T01:54:57.661Z,90.80
2022-07-29T01:57:34.244Z,90.90
2022-07-29T02:00:03.862Z,90.90
2022-07-29T02:02:42.949Z,90.90
2022-07-29T02:05:14.151Z,91.00
2022-07-29T02:07:48.922Z,90.90
2022-07-29T02:10:19.289Z,91.10
2022-07-29T02:12:57.974Z,91.10
2022-07-29T02:15:33.601Z,91.00
2022-07-29T02:18:11.254Z,91.00
2022-07-29T02:20:41.853Z,91.10
2022-07-29T02:23:12.450Z,91.20
2022-07-29T02:25:44.075Z,91.00
2022-07-29T02:28:16.668Z,91.00
2022-07-29T02:30:45.302Z,90.90
2022-07-29T02:33:16.009Z,91.00
2022-07-29T02:35:47.473Z,91.30
2022-07-29T02:38:37.160Z,91.60
2022-07-29T02:41:12.988Z,91.70
2022-07-29T02:43:45.850Z,91.70
2022-07-29T02:46:37.148Z,91.70
2022-07-29T02:49:28.799Z,91.80
2022-07-29T02:52:03.395Z,91.90
2022-07-29T02:54:54.089Z,91.90
2022-07-29T02:57:35.748Z,91.80
2022-07-29T03:00:39.525Z,91.80
2022-07-29T03:03:14.098Z,91.70
2022-07-29T03:05:42.707Z,91.70
2022-07-29T03:08:13.155Z,91.70
2022-07-29T03:10:43.705Z,91.70
2022-07-29T03:13:13.514Z,91.80
2022-07-29T03:15:42.129Z,91.90
2022-07-29T03:18:10.710Z,91.90
2022-07-29T03:20:39.308Z,91.80
2022-07-29T03:23:07.692Z,91.70
2022-07-29T03:25:36.524Z,91.60
2022-07-29T03:28:04.102Z,91.60
2022-07-29T03:30:33.697Z,91.70
2022-07-29T03:33:03.307Z,91.70
2022-07-29T03:35:41.972Z,91.80
2022-07-29T03:38:09.526Z,91.90
2022-07-29T03:40:50.180Z,91.90
2022-07-29T03:43:20.787Z,92.20
2022-07-29T03:45:51.167Z,92.20
2022-07-29T03:48:23.996Z,92.50
2022-07-29T03:50:53.597Z,92.50
2022-07-29T03:53:21.196Z,92.40
2022-07-29T03:55:54.820Z,92.40
2022-07-29T03:58:22.449Z,92.50
2022-07-29T04:00:51.009Z,92.40
2022-07-29T04:03:20.768Z,92.40
2022-07-29T04:06:03.255Z,92.30
2022-07-29T04:08:31.836Z,92.20
2022-07-29T04:10:59.430Z,92.10
2022-07-29T04:13:27.355Z,92.30
2022-07-29T04:15:55.684Z,92.40
2022-07-29T04:18:23.225Z,92.20
2022-07-29T04:20:51.819Z,92.20
2022-07-29T04:23:19.413Z,92.20
2022-07-29T04:25:48.020Z,92.20
2022-07-29T04:28:17.092Z,92.50
2022-07-29T04:30:44.298Z,92.80
2022-07-29T04:33:13.846Z,92.90
2022-07-29T04:35:47.112Z,92.80
2022-07-29T04:38:20.056Z,92.80
2022-07-29T04:40:48.134Z,92.80
2022-07-29T04:43:20.603Z,93.20
2022-07-29T04:45:51.078Z,93.30
2022-07-29T04:48:18.810Z,93.40
2022-07-29T04:50:47.044Z,93.30
2022-07-29T04:53:14.626Z,93.30
2022-07-29T04:55:43.227Z,93.60
2022-07-29T04:58:10.814Z,93.80
2022-07-29T05:00:40.416Z,93.80
2022-07-29T05:03:10.114Z,93.90
2022-07-29T05:05:37.614Z,94.10
2022-07-29T05:08:07.211Z,94.00
2022-07-29T05:10:37.893Z,94.00
2022-07-29T05:13:09.421Z,94.00
2022-07-29T05:15:39.045Z,94.20
2022-07-29T05:18:06.624Z,94.50
2022-07-29T05:20:36.212Z,94.70
2022-07-29T05:23:04.818Z,94.90
2022-07-29T05:25:42.455Z,95.00
2022-07-29T05:28:15.054Z,95.20
2022-07-29T05:30:42.734Z,95.20
2022-07-29T05:33:35.198Z,95.20
2022-07-29T05:36:00.742Z,95.20
2022-07-29T05:38:29.523Z,94.70
2022-07-29T05:41:00.185Z,94.90
2022-07-29T05:43:29.752Z,94.80
2022-07-29T05:45:59.464Z,94.80
2022-07-29T05:48:27.935Z,94.80
2022-07-29T05:50:58.538Z,95.00
2022-07-29T05:53:26.130Z,95.40
2022-07-29T05:55:54.229Z,95.70
2022-07-29T05:58:22.325Z,95.90
2022-07-29T06:00:53.005Z,95.90
2022-07-29T06:03:29.656Z,95.90
2022-07-29T06:06:00.163Z,96.10
2022-07-29T06:08:41.824Z,96.10
2022-07-29T08:04:15.585Z,78.70
2022-07-29T08:06:44.433Z,78.50
2022-07-29T08:09:28.152Z,77.20
2022-07-29T08:12:01.884Z,76.40
2022-07-29T08:14:30.219Z,76.60
2022-07-29T08:16:58.862Z,76.60
2022-07-29T08:19:28.439Z,75.50
2022-07-29T08:21:58.450Z,75.90
2022-07-29T08:24:44.704Z,75.90
2022-07-29T08:27:41.828Z,75.70
2022-07-29T08:30:04.044Z,75.70
2022-07-29T08:32:52.759Z,74.80
2022-07-29T08:35:26.278Z,74.80
2022-07-29T08:37:55.888Z,74.30
2022-07-29T08:40:31.937Z,73.80
2022-07-29T08:43:05.138Z,72.70
2022-07-29T08:45:49.863Z,73.20
2022-07-29T08:48:26.009Z,72.20
2022-07-29T08:50:58.027Z,72.10
2022-07-29T08:53:32.411Z,71.70
2022-07-29T08:56:15.308Z,72.10
2022-07-29T08:58:48.769Z,71.60
2022-07-29T09:01:35.667Z,71.00
2022-07-29T09:04:14.218Z,70.40
2022-07-29T09:06:50.850Z,70.40
2022-07-29T09:09:19.480Z,69.90
2022-07-29T09:11:52.471Z,69.70
2022-07-29T09:14:33.710Z,69.50
2022-07-29T09:17:46.716Z,69.80
2022-07-29T09:20:28.067Z,70.00
2022-07-29T09:22:58.855Z,69.90
2022-07-29T09:25:47.047Z,70.70
2022-07-29T09:28:20.104Z,67.90
2022-07-29T09:31:01.693Z,68.50
2022-07-29T09:33:46.871Z,70.10
2022-07-29T09:36:14.948Z,68.70
2022-07-29T09:38:42.544Z,67.10
2022-07-29T09:41:16.187Z,67.90
2022-07-29T09:43:59.217Z,68.20
2022-07-29T09:46:35.868Z,66.70
2022-07-29T09:49:15.141Z,66.00
2022-07-29T09:51:42.787Z,66.90
2022-07-29T09:54:30.000Z,66.10
2022-07-29T09:56:58.947Z,66.00
2022-07-29T09:59:29.534Z,65.00
2022-07-29T10:01:59.829Z,65.50
2022-07-29T10:04:43.798Z,64.30
2022-07-29T10:07:13.414Z,64.60
2022-07-29T10:09:41.006Z,64.40
2022-07-29T10:12:11.587Z,64.10
2022-07-29T10:14:40.189Z,64.20
2022-07-29T10:17:09.791Z,63.90
2022-07-29T10:19:39.410Z,64.00
2022-07-29T10:22:10.002Z,64.20
2022-07-29T10:24:40.664Z,64.60
2022-07-29T10:27:10.215Z,65.10
2022-07-29T10:29:59.942Z,64.90
2022-07-29T10:33:00.339Z,64.70
2022-07-29T10:36:19.434Z,66.20
2022-07-29T10:39:18.143Z,65.10
2022-07-29T10:42:34.297Z,65.60
2022-07-29T10:45:18.503Z,65.80
2022-07-29T10:47:47.195Z,66.50
2022-07-29T10:50:17.354Z,66.50
2022-07-29T10:52:51.429Z,66.80
2022-07-29T10:55:37.044Z,66.60
2022-07-29T10:58:26.790Z,67.40
2022-07-29T11:00:57.766Z,67.20
2022-07-29T11:03:52.377Z,67.30
2022-07-29T11:06:26.796Z,67.70
2022-07-29T11:09:25.698Z,67.40
2022-07-29T11:12:06.642Z,67.50
2022-07-29T11:14:56.786Z,67.80
2022-07-29T11:17:25.773Z,67.80
2022-07-29T11:20:33.111Z,68.10
2022-07-29T11:23:18.792Z,68.30
2022-07-29T11:25:52.330Z,67.70
2022-07-29T11:28:25.396Z,69.20
2022-07-29T11:30:55.620Z,69.40
2022-07-29T11:33:54.339Z,69.90
2022-07-29T11:36:28.175Z,70.30
2022-07-29T11:39:36.618Z,70.20
2022-07-29T11:42:32.178Z,69.90
2022-07-29T11:45:08.962Z,70.70
2022-07-29T11:48:28.031Z,70.80
2022-07-29T11:50:49.426Z,71.20
2022-07-29T11:53:19.039Z,71.50
2022-07-29T11:56:03.924Z,71.90
2022-07-29T11:58:33.391Z,72.00
2022-07-29T12:01:04.476Z,72.60
2022-07-29T12:03:35.873Z,72.80
2022-07-29T12:06:21.056Z,73.10
2022-07-29T12:08:57.573Z,73.40
2022-07-29T12:11:30.418Z,72.20
2022-07-29T12:13:57.996Z,73.00
2022-07-29T12:16:37.690Z,71.90
2022-07-29T12:19:06.251Z,72.50
2022-07-29T12:21:56.349Z,72.80
2022-07-29T12:24:26.767Z,73.00
2022-07-29T12:26:59.139Z,73.20
2022-07-29T12:29:34.879Z,72.60
2022-07-29T12:32:04.880Z,72.20
2022-07-29T12:34:33.966Z,72.40
2022-07-29T12:37:03.573Z,71.70
2022-07-29T12:39:32.159Z,71.30
2022-07-29T12:42:04.091Z,71.20
2022-07-29T12:44:49.437Z,70.80
2022-07-29T12:47:19.044Z,70.90
2022-07-29T12:49:48.642Z,71.00
2022-07-29T12:52:34.349Z,71.20
2022-07-29T12:55:02.426Z,70.30
2022-07-29T12:57:30.487Z,71.20
2022-07-29T13:00:14.209Z,70.70
2022-07-29T13:02:44.916Z,69.80
2022-07-29T13:05:21.390Z,70.20
2022-07-29T13:07:57.512Z,69.90
2022-07-29T13:15:12.580Z,69.90
2022-07-29T16:17:14.682Z,68.80
2022-07-29T16:19:44.306Z,69.40
2022-07-29T16:22:24.864Z,69.50
2022-07-29T16:24:52.545Z,69.80
2022-07-29T16:27:27.167Z,69.80
